Terminal Aerodrome Forecast
Issued by NWS

Home | Current Version | Previous Version | Text Only | Print | Product List | Glossary Off
Versions: 1 2 3 4 5 6 7 8 9 10 11 12 13 14 15 16 17 18 19

000
FTUS43 KIWX 292339
TAFSBN
TAF
KSBN 292339Z 3000/3024 13006KT P6SM SCT020 BKN040
      TEMPO 3001/3005 BKN020
     FM300500 16003KT 6SM BR BKN020
      TEMPO 3009/3011 3SM BR BKN010
     FM301300 22006KT P6SM VCSH BKN025
     FM301900 31010KT P6SM SCT020 BKN040=

USA.gov is the U.S. government's official web portal to all federal, state and local government web resources and services.